sensor_id;sensor_type;location;lat;lon;timestamp;temperature;humidity
34460;DHT22;20704;51.260;22.558;2022-11-13T00:00:36;8.00;99.90
34460;DHT22;20704;51.260;22.558;2022-11-13T00:06:08;8.20;99.90
34460;DHT22;20704;51.260;22.558;2022-11-13T00:08:53;8.10;99.90
34460;DHT22;20704;51.260;22.558;2022-11-13T00:11:39;8.20;99.90
34460;DHT22;20704;51.260;22.558;2022-11-13T00:14:23;8.10;99.90
34460;DHT22;20704;51.260;22.558;2022-11-13T00:17:07;8.10;99.90
34460;DHT22;20704;51.260;22.558;2022-11-13T00:19:51;8.10;99.90
34460;DHT22;20704;51.260;22.558;2022-11-13T00:22:36;8.10;99.90
34460;DHT22;20704;51.260;22.558;2022-11-13T00:25:20;8.10;99.90
34460;DHT22;20704;51.260;22.558;2022-11-13T00:28:05;8.00;99.90
34460;DHT22;20704;51.260;22.558;2022-11-13T00:30:49;8.10;99.90
34460;DHT22;20704;51.260;22.558;2022-11-13T00:36:22;8.10;99.90
34460;DHT22;20704;51.260;22.558;2022-11-13T00:39:08;8.10;99.90
34460;DHT22;20704;51.260;22.558;2022-11-13T00:41:53;8.00;99.90
34460;DHT22;20704;51.260;22.558;2022-11-13T00:44:37;8.20;99.90
34460;DHT22;20704;51.260;22.558;2022-11-13T00:50:06;8.10;99.90
34460;DHT22;20704;51.260;22.558;2022-11-13T00:52:51;8.20;99.90
34460;DHT22;20704;51.260;22.558;2022-11-13T00:55:35;8.20;99.90
34460;DHT22;20704;51.260;22.558;2022-11-13T00:58:20;8.10;99.90
34460;DHT22;20704;51.260;22.558;2022-11-13T01:01:06;8.10;99.90
34460;DHT22;20704;51.260;22.558;2022-11-13T01:03:51;8.10;99.90
34460;DHT22;20704;51.260;22.558;2022-11-13T01:06:35;8.00;99.90
34460;DHT22;20704;51.260;22.558;2022-11-13T01:09:20;8.10;99.90
34460;DHT22;20704;51.260;22.558;2022-11-13T01:12:04;7.90;99.90
34460;DHT22;20704;51.260;22.558;2022-11-13T01:14:49;8.10;99.90
34460;DHT22;20704;51.260;22.558;2022-11-13T01:17:34;8.00;99.90
34460;DHT22;20704;51.260;22.558;2022-11-13T01:20:19;8.00;99.90
34460;DHT22;20704;51.260;22.558;2022-11-13T01:23:04;7.80;99.90
34460;DHT22;20704;51.260;22.558;2022-11-13T01:28:34;7.90;99.90
34460;DHT22;20704;51.260;22.558;2022-11-13T01:31:20;8.00;99.90
34460;DHT22;20704;51.260;22.558;2022-11-13T01:34:05;7.90;99.90
34460;DHT22;20704;51.260;22.558;2022-11-13T01:36:50;8.00;99.90
34460;DHT22;20704;51.260;22.558;2022-11-13T01:39:35;8.10;99.90
34460;DHT22;20704;51.260;22.558;2022-11-13T01:42:19;8.10;99.90
34460;DHT22;20704;51.260;22.558;2022-11-13T01:45:48;8.10;99.90
34460;DHT22;20704;51.260;22.558;2022-11-13T01:48:08;8.00;99.90
34460;DHT22;20704;51.260;22.558;2022-11-13T01:50:54;8.00;99.90
34460;DHT22;20704;51.260;22.558;2022-11-13T01:53:38;8.10;99.90
34460;DHT22;20704;51.260;22.558;2022-11-13T01:56:24;8.10;99.90
34460;DHT22;20704;51.260;22.558;2022-11-13T01:59:13;8.10;99.90
34460;DHT22;20704;51.260;22.558;2022-11-13T02:01:59;8.10;99.90
34460;DHT22;20704;51.260;22.558;2022-11-13T02:07:28;8.00;99.90
34460;DHT22;20704;51.260;22.558;2022-11-13T02:10:12;8.00;99.90
34460;DHT22;20704;51.260;22.558;2022-11-13T02:12:57;8.00;99.90
34460;DHT22;20704;51.260;22.558;2022-11-13T02:15:41;8.00;99.90
34460;DHT22;20704;51.260;22.558;2022-11-13T02:18:27;8.00;99.90
34460;DHT22;20704;51.260;22.558;2022-11-13T02:21:15;7.90;99.90
34460;DHT22;20704;51.260;22.558;2022-11-13T02:27:05;8.00;99.90
34460;DHT22;20704;51.260;22.558;2022-11-13T02:29:51;8.00;99.90
34460;DHT22;20704;51.260;22.558;2022-11-13T02:32:40;7.80;99.90
34460;DHT22;20704;51.260;22.558;2022-11-13T02:35:28;7.70;99.90
34460;DHT22;20704;51.260;22.558;2022-11-13T02:40:59;7.90;99.90
34460;DHT22;20704;51.260;22.558;2022-11-13T02:43:43;7.80;99.90
34460;DHT22;20704;51.260;22.558;2022-11-13T02:46:27;7.90;99.90
34460;DHT22;20704;51.260;22.558;2022-11-13T02:49:12;7.90;99.90
34460;DHT22;20704;51.260;22.558;2022-11-13T02:51:57;7.80;99.90
34460;DHT22;20704;51.260;22.558;2022-11-13T02:54:41;7.90;99.90
34460;DHT22;20704;51.260;22.558;2022-11-13T02:57:25;7.90;99.90
34460;DHT22;20704;51.260;22.558;2022-11-13T03:00:10;7.90;99.90
34460;DHT22;20704;51.260;22.558;2022-11-13T03:02:56;7.90;99.90
34460;DHT22;20704;51.260;22.558;2022-11-13T03:05:41;7.80;99.90
34460;DHT22;20704;51.260;22.558;2022-11-13T03:08:25;7.70;99.90
34460;DHT22;20704;51.260;22.558;2022-11-13T03:11:10;7.80;99.90
34460;DHT22;20704;51.260;22.558;2022-11-13T03:13:55;7.70;99.90
34460;DHT22;20704;51.260;22.558;2022-11-13T03:16:39;7.80;99.90
34460;DHT22;20704;51.260;22.558;2022-11-13T03:19:24;7.80;99.90
34460;DHT22;20704;51.260;22.558;2022-11-13T03:22:08;7.90;99.90
34460;DHT22;20704;51.260;22.558;2022-11-13T03:24:53;7.60;99.90
34460;DHT22;20704;51.260;22.558;2022-11-13T03:27:37;7.70;99.90
34460;DHT22;20704;51.260;22.558;2022-11-13T03:30:21;7.80;99.90
34460;DHT22;20704;51.260;22.558;2022-11-13T03:33:06;7.80;99.90
34460;DHT22;20704;51.260;22.558;2022-11-13T03:35:50;7.80;99.90
34460;DHT22;20704;51.260;22.558;2022-11-13T03:38:35;7.80;99.90
34460;DHT22;20704;51.260;22.558;2022-11-13T03:41:20;7.80;99.90
34460;DHT22;20704;51.260;22.558;2022-11-13T03:44:05;7.90;99.90
34460;DHT22;20704;51.260;22.558;2022-11-13T03:46:49;7.70;99.90
34460;DHT22;20704;51.260;22.558;2022-11-13T03:49:33;7.70;99.90
34460;DHT22;20704;51.260;22.558;2022-11-13T03:52:18;7.80;99.90
34460;DHT22;20704;51.260;22.558;2022-11-13T03:55:02;7.80;99.90
34460;DHT22;20704;51.260;22.558;2022-11-13T03:57:47;7.80;99.90
34460;DHT22;20704;51.260;22.558;2022-11-13T04:00:32;7.80;99.90
34460;DHT22;20704;51.260;22.558;2022-11-13T04:03:16;7.70;99.90
34460;DHT22;20704;51.260;22.558;2022-11-13T04:06:01;7.70;99.90
34460;DHT22;20704;51.260;22.558;2022-11-13T04:08:45;7.70;99.90
34460;DHT22;20704;51.260;22.558;2022-11-13T04:11:30;7.70;99.90
34460;DHT22;20704;51.260;22.558;2022-11-13T04:14:14;7.80;99.90
34460;DHT22;20704;51.260;22.558;2022-11-13T04:16:59;7.80;99.90
34460;DHT22;20704;51.260;22.558;2022-11-13T04:22:28;7.70;99.90
34460;DHT22;20704;51.260;22.558;2022-11-13T04:25:12;7.80;99.90
34460;DHT22;20704;51.260;22.558;2022-11-13T04:27:57;7.80;99.90
34460;DHT22;20704;51.260;22.558;2022-11-13T04:30:41;7.80;99.90
34460;DHT22;20704;51.260;22.558;2022-11-13T04:33:26;7.70;99.90
34460;DHT22;20704;51.260;22.558;2022-11-13T04:36:10;7.70;99.90
34460;DHT22;20704;51.260;22.558;2022-11-13T04:38:55;7.80;99.90
34460;DHT22;20704;51.260;22.558;2022-11-13T04:41:39;7.80;99.90
34460;DHT22;20704;51.260;22.558;2022-11-13T04:44:42;7.70;99.90
34460;DHT22;20704;51.260;22.558;2022-11-13T04:47:27;7.80;99.90
34460;DHT22;20704;51.260;22.558;2022-11-13T04:50:12;7.80;99.90
34460;DHT22;20704;51.260;22.558;2022-11-13T04:52:57;7.80;99.90
34460;DHT22;20704;51.260;22.558;2022-11-13T04:55:41;7.80;99.90
34460;DHT22;20704;51.260;22.558;2022-11-13T05:01:10;7.80;99.90
34460;DHT22;20704;51.260;22.558;2022-11-13T05:03:55;7.70;99.90
34460;DHT22;20704;51.260;22.558;2022-11-13T05:06:39;7.70;99.90
34460;DHT22;20704;51.260;22.558;2022-11-13T05:09:24;7.70;99.90
34460;DHT22;20704;51.260;22.558;2022-11-13T05:12:09;7.70;99.90
34460;DHT22;20704;51.260;22.558;2022-11-13T05:14:53;7.90;99.90
34460;DHT22;20704;51.260;22.558;2022-11-13T05:17:38;7.80;99.90
34460;DHT22;20704;51.260;22.558;2022-11-13T05:20:22;7.80;99.90
34460;DHT22;20704;51.260;22.558;2022-11-13T05:23:07;7.90;99.90
34460;DHT22;20704;51.260;22.558;2022-11-13T05:25:52;7.80;99.90
34460;DHT22;20704;51.260;22.558;2022-11-13T05:28:37;7.90;99.90
34460;DHT22;20704;51.260;22.558;2022-11-13T05:31:22;7.70;99.90
34460;DHT22;20704;51.260;22.558;2022-11-13T05:34:06;7.80;99.90
34460;DHT22;20704;51.260;22.558;2022-11-13T05:36:51;7.80;99.90
34460;DHT22;20704;51.260;22.558;2022-11-13T05:39:35;7.90;99.90
34460;DHT22;20704;51.260;22.558;2022-11-13T05:42:20;7.90;99.90
34460;DHT22;20704;51.260;22.558;2022-11-13T05:45:05;7.90;99.90
34460;DHT22;20704;51.260;22.558;2022-11-13T05:47:50;7.80;99.90
34460;DHT22;20704;51.260;22.558;2022-11-13T05:50:34;7.80;99.90
34460;DHT22;20704;51.260;22.558;2022-11-13T05:53:18;7.90;99.90
34460;DHT22;20704;51.260;22.558;2022-11-13T05:58:48;7.80;99.90
34460;DHT22;20704;51.260;22.558;2022-11-13T06:01:33;7.80;99.90
34460;DHT22;20704;51.260;22.558;2022-11-13T06:04:18;7.90;99.90
34460;DHT22;20704;51.260;22.558;2022-11-13T06:07:03;8.00;99.90
34460;DHT22;20704;51.260;22.558;2022-11-13T06:09:47;8.10;99.90
34460;DHT22;20704;51.260;22.558;2022-11-13T06:12:32;7.90;99.90
34460;DHT22;20704;51.260;22.558;2022-11-13T06:15:16;8.00;99.90
34460;DHT22;20704;51.260;22.558;2022-11-13T06:18:00;8.00;99.90
34460;DHT22;20704;51.260;22.558;2022-11-13T06:20:45;7.90;99.90
34460;DHT22;20704;51.260;22.558;2022-11-13T06:23:31;8.00;99.90
34460;DHT22;20704;51.260;22.558;2022-11-13T06:26:19;8.00;99.90
34460;DHT22;20704;51.260;22.558;2022-11-13T06:29:05;8.10;99.90
34460;DHT22;20704;51.260;22.558;2022-11-13T06:31:50;8.00;99.90
34460;DHT22;20704;51.260;22.558;2022-11-13T06:34:34;8.00;99.90
34460;DHT22;20704;51.260;22.558;2022-11-13T06:37:18;8.00;99.90
34460;DHT22;20704;51.260;22.558;2022-11-13T06:40:03;8.00;99.90
34460;DHT22;20704;51.260;22.558;2022-11-13T06:42:48;8.10;99.90
34460;DHT22;20704;51.260;22.558;2022-11-13T06:45:32;8.00;99.90
34460;DHT22;20704;51.260;22.558;2022-11-13T06:48:17;8.00;99.90
34460;DHT22;20704;51.260;22.558;2022-11-13T06:51:04;8.10;99.90
34460;DHT22;20704;51.260;22.558;2022-11-13T06:53:50;8.00;99.90
34460;DHT22;20704;51.260;22.558;2022-11-13T06:56:34;8.00;99.90
34460;DHT22;20704;51.260;22.558;2022-11-13T06:59:19;8.10;99.90
34460;DHT22;20704;51.260;22.558;2022-11-13T07:02:03;8.10;99.90
34460;DHT22;20704;51.260;22.558;2022-11-13T07:04:48;8.00;99.90
34460;DHT22;20704;51.260;22.558;2022-11-13T07:07:32;8.10;99.90
34460;DHT22;20704;51.260;22.558;2022-11-13T07:10:16;8.20;99.90
34460;DHT22;20704;51.260;22.558;2022-11-13T07:13:01;8.20;99.90
34460;DHT22;20704;51.260;22.558;2022-11-13T07:18:31;8.20;99.90
34460;DHT22;20704;51.260;22.558;2022-11-13T07:21:15;8.20;99.90
34460;DHT22;20704;51.260;22.558;2022-11-13T07:24:00;8.30;99.90
34460;DHT22;20704;51.260;22.558;2022-11-13T07:26:44;8.40;99.90
34460;DHT22;20704;51.260;22.558;2022-11-13T07:29:29;8.30;99.90
34460;DHT22;20704;51.260;22.558;2022-11-13T07:32:14;8.30;99.90
34460;DHT22;20704;51.260;22.558;2022-11-13T07:34:58;8.40;99.90
34460;DHT22;20704;51.260;22.558;2022-11-13T07:37:43;8.50;99.90
34460;DHT22;20704;51.260;22.558;2022-11-13T07:40:27;8.50;99.90
34460;DHT22;20704;51.260;22.558;2022-11-13T07:43:12;8.40;99.90
34460;DHT22;20704;51.260;22.558;2022-11-13T07:45:57;8.50;99.90
34460;DHT22;20704;51.260;22.558;2022-11-13T07:48:41;8.60;99.90
34460;DHT22;20704;51.260;22.558;2022-11-13T07:51:26;8.50;99.90
34460;DHT22;20704;51.260;22.558;2022-11-13T07:54:10;8.50;99.90
34460;DHT22;20704;51.260;22.558;2022-11-13T07:56:55;8.50;99.90
34460;DHT22;20704;51.260;22.558;2022-11-13T07:59:40;8.40;99.90
34460;DHT22;20704;51.260;22.558;2022-11-13T08:02:24;8.60;99.90
34460;DHT22;20704;51.260;22.558;2022-11-13T08:05:09;8.50;99.90
34460;DHT22;20704;51.260;22.558;2022-11-13T08:07:53;8.60;99.90
34460;DHT22;20704;51.260;22.558;2022-11-13T08:10:38;8.60;99.90
34460;DHT22;20704;51.260;22.558;2022-11-13T08:13:22;8.50;99.90
34460;DHT22;20704;51.260;22.558;2022-11-13T08:16:07;8.50;99.90
34460;DHT22;20704;51.260;22.558;2022-11-13T08:18:52;8.60;99.90
34460;DHT22;20704;51.260;22.558;2022-11-13T08:21:37;8.60;99.90
34460;DHT22;20704;51.260;22.558;2022-11-13T08:24:21;8.70;99.90
34460;DHT22;20704;51.260;22.558;2022-11-13T08:27:05;8.70;99.90
34460;DHT22;20704;51.260;22.558;2022-11-13T08:29:50;8.70;99.90
34460;DHT22;20704;51.260;22.558;2022-11-13T08:32:35;8.70;99.90
34460;DHT22;20704;51.260;22.558;2022-11-13T08:35:20;8.70;99.90
34460;DHT22;20704;51.260;22.558;2022-11-13T08:38:05;8.70;99.90
34460;DHT22;20704;51.260;22.558;2022-11-13T08:40:50;8.80;99.90
34460;DHT22;20704;51.260;22.558;2022-11-13T08:43:35;8.80;99.90
34460;DHT22;20704;51.260;22.558;2022-11-13T08:46:19;8.70;99.90
34460;DHT22;20704;51.260;22.558;2022-11-13T08:49:03;8.80;99.90
34460;DHT22;20704;51.260;22.558;2022-11-13T08:51:48;8.80;99.90
34460;DHT22;20704;51.260;22.558;2022-11-13T08:54:32;8.80;99.90
34460;DHT22;20704;51.260;22.558;2022-11-13T08:57:17;8.80;99.90
34460;DHT22;20704;51.260;22.558;2022-11-13T09:00:02;8.90;99.90
34460;DHT22;20704;51.260;22.558;2022-11-13T09:02:46;8.90;99.90
34460;DHT22;20704;51.260;22.558;2022-11-13T09:05:31;8.90;99.90
34460;DHT22;20704;51.260;22.558;2022-11-13T09:11:01;8.90;99.90
34460;DHT22;20704;51.260;22.558;2022-11-13T09:13:47;8.90;99.90
34460;DHT22;20704;51.260;22.558;2022-11-13T09:16:31;8.90;99.90
34460;DHT22;20704;51.260;22.558;2022-11-13T09:19:16;8.80;99.90
34460;DHT22;20704;51.260;22.558;2022-11-13T09:22:00;8.90;99.90
34460;DHT22;20704;51.260;22.558;2022-11-13T09:27:30;8.90;99.90
34460;DHT22;20704;51.260;22.558;2022-11-13T09:30:14;9.00;99.90
34460;DHT22;20704;51.260;22.558;2022-11-13T09:32:59;9.10;99.90
34460;DHT22;20704;51.260;22.558;2022-11-13T09:35:44;9.10;99.90
34460;DHT22;20704;51.260;22.558;2022-11-13T09:38:29;9.20;99.90
34460;DHT22;20704;51.260;22.558;2022-11-13T09:41:19;9.20;99.90
34460;DHT22;20704;51.260;22.558;2022-11-13T09:44:05;9.30;99.90
34460;DHT22;20704;51.260;22.558;2022-11-13T09:49:45;9.30;99.90
34460;DHT22;20704;51.260;22.558;2022-11-13T09:55:17;9.50;99.90
34460;DHT22;20704;51.260;22.558;2022-11-13T09:58:10;9.60;99.90
34460;DHT22;20704;51.260;22.558;2022-11-13T10:00:59;9.60;99.90
34460;DHT22;20704;51.260;22.558;2022-11-13T10:03:46;9.60;99.90
34460;DHT22;20704;51.260;22.558;2022-11-13T10:06:38;9.80;99.90
34460;DHT22;20704;51.260;22.558;2022-11-13T10:12:08;9.70;99.90
34460;DHT22;20704;51.260;22.558;2022-11-13T10:14:54;9.60;99.90
34460;DHT22;20704;51.260;22.558;2022-11-13T10:17:44;9.50;99.90
34460;DHT22;20704;51.260;22.558;2022-11-13T10:20:31;9.80;99.90
34460;DHT22;20704;51.260;22.558;2022-11-13T10:26:23;9.80;99.90
34460;DHT22;20704;51.260;22.558;2022-11-13T10:29:11;9.90;99.90
34460;DHT22;20704;51.260;22.558;2022-11-13T10:31:56;9.80;99.90
34460;DHT22;20704;51.260;22.558;2022-11-13T10:34:55;10.00;99.90
34460;DHT22;20704;51.260;22.558;2022-11-13T10:37:53;9.90;99.90
34460;DHT22;20704;51.260;22.558;2022-11-13T10:40:41;10.10;99.90
34460;DHT22;20704;51.260;22.558;2022-11-13T10:43:25;10.10;99.90
34460;DHT22;20704;51.260;22.558;2022-11-13T10:46:26;10.40;99.90
34460;DHT22;20704;51.260;22.558;2022-11-13T10:49:19;10.30;99.90
34460;DHT22;20704;51.260;22.558;2022-11-13T10:52:11;10.30;99.90
34460;DHT22;20704;51.260;22.558;2022-11-13T10:58:00;10.00;99.90
34460;DHT22;20704;51.260;22.558;2022-11-13T11:00:45;10.30;99.90
34460;DHT22;20704;51.260;22.558;2022-11-13T11:03:32;10.50;99.90
34460;DHT22;20704;51.260;22.558;2022-11-13T11:06:16;10.40;99.90
34460;DHT22;20704;51.260;22.558;2022-11-13T11:09:13;10.40;99.90
34460;DHT22;20704;51.260;22.558;2022-11-13T11:15:14;10.10;99.90
34460;DHT22;20704;51.260;22.558;2022-11-13T11:18:02;10.10;99.90
34460;DHT22;20704;51.260;22.558;2022-11-13T11:20:58;10.10;99.90
34460;DHT22;20704;51.260;22.558;2022-11-13T11:29:25;10.00;99.90
34460;DHT22;20704;51.260;22.558;2022-11-13T11:32:15;9.70;99.90
34460;DHT22;20704;51.260;22.558;2022-11-13T11:35:21;9.60;99.90
34460;DHT22;20704;51.260;22.558;2022-11-13T11:38:14;9.20;99.90
34460;DHT22;20704;51.260;22.558;2022-11-13T11:41:04;9.30;99.90
34460;DHT22;20704;51.260;22.558;2022-11-13T11:46:56;9.50;99.90
34460;DHT22;20704;51.260;22.558;2022-11-13T11:49:41;9.60;99.90
34460;DHT22;20704;51.260;22.558;2022-11-13T11:52:38;9.70;99.90
34460;DHT22;20704;51.260;22.558;2022-11-13T11:55:39;9.10;99.90
34460;DHT22;20704;51.260;22.558;2022-11-13T12:01:16;9.00;99.90
34460;DHT22;20704;51.260;22.558;2022-11-13T12:04:12;9.00;99.90
34460;DHT22;20704;51.260;22.558;2022-11-13T12:07:07;9.20;99.90
34460;DHT22;20704;51.260;22.558;2022-11-13T12:09:59;9.30;99.90
34460;DHT22;20704;51.260;22.558;2022-11-13T12:12:54;9.40;99.90
34460;DHT22;20704;51.260;22.558;2022-11-13T12:15:55;9.40;99.90
34460;DHT22;20704;51.260;22.558;2022-11-13T12:21:36;9.40;99.90
34460;DHT22;20704;51.260;22.558;2022-11-13T12:24:32;9.50;99.90
34460;DHT22;20704;51.260;22.558;2022-11-13T12:27:21;9.40;99.90
34460;DHT22;20704;51.260;22.558;2022-11-13T12:30:14;9.30;99.90
34460;DHT22;20704;51.260;22.558;2022-11-13T12:33:22;9.30;99.90
34460;DHT22;20704;51.260;22.558;2022-11-13T12:36:06;9.40;99.90
34460;DHT22;20704;51.260;22.558;2022-11-13T12:39:04;9.50;99.90
34460;DHT22;20704;51.260;22.558;2022-11-13T12:47:38;9.50;99.90
34460;DHT22;20704;51.260;22.558;2022-11-13T12:50:25;9.50;99.90
34460;DHT22;20704;51.260;22.558;2022-11-13T12:53:11;9.50;99.90
34460;DHT22;20704;51.260;22.558;2022-11-13T12:55:59;9.60;99.90
34460;DHT22;20704;51.260;22.558;2022-11-13T13:01:48;9.50;99.90
34460;DHT22;20704;51.260;22.558;2022-11-13T13:04:44;9.50;99.90
34460;DHT22;20704;51.260;22.558;2022-11-13T13:10:26;9.50;99.90
34460;DHT22;20704;51.260;22.558;2022-11-13T13:15:59;9.50;99.90
34460;DHT22;20704;51.260;22.558;2022-11-13T13:18:43;9.50;99.90
34460;DHT22;20704;51.260;22.558;2022-11-13T13:21:37;9.50;99.90
34460;DHT22;20704;51.260;22.558;2022-11-13T13:24:32;9.40;99.90
34460;DHT22;20704;51.260;22.558;2022-11-13T13:27:21;9.50;99.90
34460;DHT22;20704;51.260;22.558;2022-11-13T13:30:22;9.50;99.90
34460;DHT22;20704;51.260;22.558;2022-11-13T13:36:07;9.50;99.90
34460;DHT22;20704;51.260;22.558;2022-11-13T13:38:56;9.50;99.90
34460;DHT22;20704;51.260;22.558;2022-11-13T13:41:58;9.50;99.90
34460;DHT22;20704;51.260;22.558;2022-11-13T13:47:34;9.40;99.90
34460;DHT22;20704;51.260;22.558;2022-11-13T13:50:28;9.40;99.90
34460;DHT22;20704;51.260;22.558;2022-11-13T13:53:15;9.50;99.90
34460;DHT22;20704;51.260;22.558;2022-11-13T13:56:02;9.40;99.90
34460;DHT22;20704;51.260;22.558;2022-11-13T13:58:47;9.30;99.90
34460;DHT22;20704;51.260;22.558;2022-11-13T14:01:34;9.40;99.90
34460;DHT22;20704;51.260;22.558;2022-11-13T14:04:20;9.40;99.90
34460;DHT22;20704;51.260;22.558;2022-11-13T14:07:16;9.40;99.90
34460;DHT22;20704;51.260;22.558;2022-11-13T14:10:13;9.50;99.90
34460;DHT22;20704;51.260;22.558;2022-11-13T14:15:43;9.30;99.90
34460;DHT22;20704;51.260;22.558;2022-11-13T14:18:28;9.20;99.90
34460;DHT22;20704;51.260;22.558;2022-11-13T14:23:59;9.20;99.90
34460;DHT22;20704;51.260;22.558;2022-11-13T14:26:45;9.20;99.90
34460;DHT22;20704;51.260;22.558;2022-11-13T14:29:33;9.10;99.90
34460;DHT22;20704;51.260;22.558;2022-11-13T14:32:27;9.10;99.90
34460;DHT22;20704;51.260;22.558;2022-11-13T14:35:17;9.10;99.90
34460;DHT22;20704;51.260;22.558;2022-11-13T14:38:02;9.10;99.90
34460;DHT22;20704;51.260;22.558;2022-11-13T14:40:47;9.00;99.90
34460;DHT22;20704;51.260;22.558;2022-11-13T14:43:32;9.00;99.90
34460;DHT22;20704;51.260;22.558;2022-11-13T14:49:02;9.00;99.90
34460;DHT22;20704;51.260;22.558;2022-11-13T14:51:53;8.90;99.90
34460;DHT22;20704;51.260;22.558;2022-11-13T14:54:37;9.00;99.90
34460;DHT22;20704;51.260;22.558;2022-11-13T14:57:22;9.00;99.90
34460;DHT22;20704;51.260;22.558;2022-11-13T15:00:26;9.00;99.90
34460;DHT22;20704;51.260;22.558;2022-11-13T15:03:11;9.00;99.90
34460;DHT22;20704;51.260;22.558;2022-11-13T15:05:55;9.00;99.90
34460;DHT22;20704;51.260;22.558;2022-11-13T15:08:39;9.00;99.90
34460;DHT22;20704;51.260;22.558;2022-11-13T15:11:24;9.00;99.90
34460;DHT22;20704;51.260;22.558;2022-11-13T15:14:09;9.00;99.90
34460;DHT22;20704;51.260;22.558;2022-11-13T15:16:54;9.00;99.90
34460;DHT22;20704;51.260;22.558;2022-11-13T15:19:39;9.00;99.90
34460;DHT22;20704;51.260;22.558;2022-11-13T15:22:23;8.90;99.90
34460;DHT22;20704;51.260;22.558;2022-11-13T15:25:11;9.00;99.90
34460;DHT22;20704;51.260;22.558;2022-11-13T15:30:41;8.90;99.90
34460;DHT22;20704;51.260;22.558;2022-11-13T15:33:25;8.90;99.90
34460;DHT22;20704;51.260;22.558;2022-11-13T15:36:10;8.90;99.90
34460;DHT22;20704;51.260;22.558;2022-11-13T15:38:55;8.80;99.90
34460;DHT22;20704;51.260;22.558;2022-11-13T15:41:39;8.90;99.90
34460;DHT22;20704;51.260;22.558;2022-11-13T15:44:24;8.90;99.90
34460;DHT22;20704;51.260;22.558;2022-11-13T15:47:24;8.80;99.90
34460;DHT22;20704;51.260;22.558;2022-11-13T15:50:09;9.00;99.90
34460;DHT22;20704;51.260;22.558;2022-11-13T15:52:54;8.90;99.90
34460;DHT22;20704;51.260;22.558;2022-11-13T15:55:40;8.90;99.90
34460;DHT22;20704;51.260;22.558;2022-11-13T15:58:25;8.90;99.90
34460;DHT22;20704;51.260;22.558;2022-11-13T16:01:13;8.80;99.90
34460;DHT22;20704;51.260;22.558;2022-11-13T16:03:58;8.90;99.90
34460;DHT22;20704;51.260;22.558;2022-11-13T16:06:45;8.90;99.90
34460;DHT22;20704;51.260;22.558;2022-11-13T16:09:30;8.80;99.90
34460;DHT22;20704;51.260;22.558;2022-11-13T16:12:14;8.80;99.90
34460;DHT22;20704;51.260;22.558;2022-11-13T16:14:58;8.80;99.90
34460;DHT22;20704;51.260;22.558;2022-11-13T16:17:45;8.90;99.90
34460;DHT22;20704;51.260;22.558;2022-11-13T16:20:30;8.80;99.90
34460;DHT22;20704;51.260;22.558;2022-11-13T16:23:15;8.80;99.90
34460;DHT22;20704;51.260;22.558;2022-11-13T16:26:00;8.70;99.90
34460;DHT22;20704;51.260;22.558;2022-11-13T16:28:47;8.80;99.90
34460;DHT22;20704;51.260;22.558;2022-11-13T16:31:33;8.70;99.90
34460;DHT22;20704;51.260;22.558;2022-11-13T16:34:17;8.70;99.90
34460;DHT22;20704;51.260;22.558;2022-11-13T16:37:02;8.70;99.90
34460;DHT22;20704;51.260;22.558;2022-11-13T16:39:47;8.60;99.90
34460;DHT22;20704;51.260;22.558;2022-11-13T16:42:32;8.60;99.90
34460;DHT22;20704;51.260;22.558;2022-11-13T16:45:16;8.60;99.90
34460;DHT22;20704;51.260;22.558;2022-11-13T16:48:01;8.60;99.90
34460;DHT22;20704;51.260;22.558;2022-11-13T16:50:45;8.60;99.90
34460;DHT22;20704;51.260;22.558;2022-11-13T16:53:30;8.60;99.90
34460;DHT22;20704;51.260;22.558;2022-11-13T16:56:15;8.50;99.90
34460;DHT22;20704;51.260;22.558;2022-11-13T16:59:00;8.60;99.90
34460;DHT22;20704;51.260;22.558;2022-11-13T17:01:44;8.50;99.90
34460;DHT22;20704;51.260;22.558;2022-11-13T17:04:29;8.60;99.90
34460;DHT22;20704;51.260;22.558;2022-11-13T17:07:13;8.60;99.90
34460;DHT22;20704;51.260;22.558;2022-11-13T17:09:58;8.60;99.90
34460;DHT22;20704;51.260;22.558;2022-11-13T17:12:47;8.80;99.90
34460;DHT22;20704;51.260;22.558;2022-11-13T17:15:32;8.60;99.90
34460;DHT22;20704;51.260;22.558;2022-11-13T17:18:16;8.60;99.90
34460;DHT22;20704;51.260;22.558;2022-11-13T17:21:01;8.60;99.90
34460;DHT22;20704;51.260;22.558;2022-11-13T17:26:31;8.60;99.90
34460;DHT22;20704;51.260;22.558;2022-11-13T17:29:15;8.60;99.90
34460;DHT22;20704;51.260;22.558;2022-11-13T17:32:00;8.60;99.90
34460;DHT22;20704;51.260;22.558;2022-11-13T17:34:44;8.60;99.90
34460;DHT22;20704;51.260;22.558;2022-11-13T17:37:28;8.60;99.90
34460;DHT22;20704;51.260;22.558;2022-11-13T17:40:13;8.60;99.90
34460;DHT22;20704;51.260;22.558;2022-11-13T17:42:57;8.60;99.90
34460;DHT22;20704;51.260;22.558;2022-11-13T17:45:41;8.50;99.90
34460;DHT22;20704;51.260;22.558;2022-11-13T17:48:29;8.50;99.90
34460;DHT22;20704;51.260;22.558;2022-11-13T17:51:14;8.50;99.90
34460;DHT22;20704;51.260;22.558;2022-11-13T17:53:58;8.60;99.90
34460;DHT22;20704;51.260;22.558;2022-11-13T17:56:43;8.60;99.90
34460;DHT22;20704;51.260;22.558;2022-11-13T17:59:28;8.40;99.90
34460;DHT22;20704;51.260;22.558;2022-11-13T18:02:12;8.40;99.90
34460;DHT22;20704;51.260;22.558;2022-11-13T18:04:57;8.40;99.90
34460;DHT22;20704;51.260;22.558;2022-11-13T18:07:44;8.40;99.90
34460;DHT22;20704;51.260;22.558;2022-11-13T18:10:29;8.40;99.90
34460;DHT22;20704;51.260;22.558;2022-11-13T18:13:14;8.30;99.90
34460;DHT22;20704;51.260;22.558;2022-11-13T18:16:09;8.40;99.90
34460;DHT22;20704;51.260;22.558;2022-11-13T18:18:54;8.30;99.90
34460;DHT22;20704;51.260;22.558;2022-11-13T18:21:39;8.40;99.90
34460;DHT22;20704;51.260;22.558;2022-11-13T18:24:24;8.30;99.90
34460;DHT22;20704;51.260;22.558;2022-11-13T18:27:09;8.30;99.90
34460;DHT22;20704;51.260;22.558;2022-11-13T18:29:54;8.20;99.90
34460;DHT22;20704;51.260;22.558;2022-11-13T18:32:38;8.40;99.90
34460;DHT22;20704;51.260;22.558;2022-11-13T18:35:23;8.30;99.90
34460;DHT22;20704;51.260;22.558;2022-11-13T18:38:08;8.20;99.90
34460;DHT22;20704;51.260;22.558;2022-11-13T18:41:12;8.30;99.90
34460;DHT22;20704;51.260;22.558;2022-11-13T18:43:57;8.40;99.90
34460;DHT22;20704;51.260;22.558;2022-11-13T18:46:41;8.40;99.90
34460;DHT22;20704;51.260;22.558;2022-11-13T18:49:25;8.30;99.90
34460;DHT22;20704;51.260;22.558;2022-11-13T18:52:10;8.40;99.90
34460;DHT22;20704;51.260;22.558;2022-11-13T18:54:55;8.30;99.90
34460;DHT22;20704;51.260;22.558;2022-11-13T18:57:39;8.40;99.90
34460;DHT22;20704;51.260;22.558;2022-11-13T19:00:24;8.40;99.90
34460;DHT22;20704;51.260;22.558;2022-11-13T19:03:08;8.40;99.90
34460;DHT22;20704;51.260;22.558;2022-11-13T19:08:37;8.40;99.90
34460;DHT22;20704;51.260;22.558;2022-11-13T19:11:23;8.40;99.90
34460;DHT22;20704;51.260;22.558;2022-11-13T19:14:07;8.40;99.90